Time;durP1;ratioP1;P1;durP2;ratioP2;P2;SDS_P1;SDS_P2;PMS_P1;PMS_P2;Temp;Humidity;BMP_temperature;BMP_pressure;BME280_temperature;BME280_humidity;BME280_pressure;Samples;Min_cycle;Max_cycle;Signal;HPM_P1;HPM_P2
2023/05/13 00:02:16;;;;;;;;;;;;;;;17.64;49.49;102021.78;5069431;28;19919;-86
2023/05/13 00:04:42;;;;;;;;;;;;;;;17.80;49.16;102010.13;5086928;28;20435;-86
2023/05/13 00:07:07;;;;;;;;;;;;;;;17.83;48.99;102020.91;5066159;28;19923;-86
2023/05/13 00:09:32;;;;;;;;;;;;;;;17.78;48.72;102019.72;5052871;28;19963;-86
2023/05/13 00:11:58;;;;;;;;;;;;;;;17.73;49.09;102018.63;5083871;28;19913;-86
2023/05/13 00:14:23;;;;;;;;;;;;;;;17.75;48.87;102016.97;5066055;28;19920;-86
2023/05/13 00:16:49;;;;;;;;;;;;;;;17.78;49.47;102009.16;5089287;28;20037;-85
2023/05/13 00:19:14;;;;;;;;;;;;;;;17.62;51.28;102007.59;5071877;28;19939;-86
2023/05/13 00:21:40;;;;;;;;;;;;;;;17.74;51.91;102009.84;5082535;28;19920;-86
2023/05/13 00:24:05;;;;;;;;;;;;;;;17.75;52.35;102006.41;5072763;28;19919;-86
2023/05/13 00:26:31;;;;;;;;;;;;;;;17.65;52.11;102010.34;5042753;28;19912;-86
2023/05/13 00:28:57;;;;;;;;;;;;;;;17.52;51.49;102010.66;5074252;28;20423;-86
2023/05/13 00:31:23;;;;;;;;;;;;;;;17.57;50.93;102004.75;5094216;28;19912;-87
2023/05/13 00:33:48;;;;;;;;;;;;;;;17.55;50.41;102005.53;5093987;28;19939;-86
2023/05/13 00:36:15;;;;;;;;;;;;;;;17.67;49.87;102006.03;5090007;28;20454;-86
2023/05/13 00:38:42;;;;;;;;;;;;;;;17.59;49.82;102002.16;5073844;28;19912;-87
2023/05/13 00:41:08;;;;;;;;;;;;;;;17.55;49.83;102005.53;5085199;28;19923;-86
2023/05/13 00:43:33;;;;;;;;;;;;;;;17.50;49.78;102006.22;5075564;28;19931;-86
2023/05/13 00:45:59;;;;;;;;;;;;;;;17.55;49.54;102011.69;5075950;28;19916;-86
2023/05/13 00:48:24;;;;;;;;;;;;;;;17.58;49.37;102013.56;5076114;28;20561;-86
2023/05/13 00:50:50;;;;;;;;;;;;;;;17.59;49.28;102010.06;5093023;28;19963;-86
2023/05/13 00:53:15;;;;;;;;;;;;;;;17.60;49.21;102011.91;5076017;28;20381;-86
2023/05/13 00:55:42;;;;;;;;;;;;;;;17.58;49.29;102013.56;5076015;28;20006;-86
2023/05/13 00:58:07;;;;;;;;;;;;;;;17.65;49.08;102003.34;5075668;28;19916;-86
2023/05/13 01:00:33;;;;;;;;;;;;;;;17.59;48.85;101999.50;5075939;28;19919;-87
2023/05/13 01:03:02;;;;;;;;;;;;;;;17.55;48.88;102008.16;5060602;28;20378;-86
2023/05/13 01:05:50;;;;;;;;;;;;;;;17.55;49.28;102008.16;5075710;28;19912;-87
2023/05/13 01:08:34;;;;;;;;;;;;;;;17.46;50.72;102014.84;5065240;28;19937;-87
2023/05/13 01:11:07;;;;;;;;;;;;;;;17.59;51.55;102012.72;5093414;28;20435;-86
2023/05/13 01:13:35;;;;;;;;;;;;;;;17.58;52.18;102009.19;5074733;28;19923;-87
2023/05/13 01:16:10;;;;;;;;;;;;;;;17.57;52.28;102012.66;5038869;28;19944;-86
2023/05/13 01:18:36;;;;;;;;;;;;;;;17.43;51.18;102019.06;5086945;28;19912;-86
2023/05/13 01:21:02;;;;;;;;;;;;;;;17.40;50.74;102013.63;5075309;28;19919;-86
2023/05/13 01:23:28;;;;;;;;;;;;;;;17.40;50.30;102017.19;5075287;28;19923;-87
2023/05/13 01:25:53;;;;;;;;;;;;;;;17.38;50.22;102020.59;5058232;28;19920;-86
2023/05/13 01:28:19;;;;;;;;;;;;;;;17.47;49.54;102023.66;5074741;28;20441;-86
2023/05/13 01:30:44;;;;;;;;;;;;;;;17.56;49.34;102025.81;5058378;28;19916;-86
2023/05/13 01:33:10;;;;;;;;;;;;;;;17.58;49.14;102027.66;5093051;28;19916;-86
2023/05/13 01:35:35;;;;;;;;;;;;;;;17.42;49.40;102025.16;5075244;28;19920;-86
2023/05/13 01:38:01;;;;;;;;;;;;;;;17.43;49.20;102032.25;5084427;28;20374;-86
2023/05/13 01:40:28;;;;;;;;;;;;;;;17.37;49.35;102026.69;5052985;28;20304;-86
2023/05/13 01:42:53;;;;;;;;;;;;;;;17.52;49.03;102026.50;5054736;28;20440;-86
2023/05/13 01:45:18;;;;;;;;;;;;;;;17.34;49.35;102026.56;5092143;28;20458;-86
2023/05/13 01:47:44;;;;;;;;;;;;;;;17.41;48.99;102024.25;5093000;28;20492;-87
2023/05/13 01:50:10;;;;;;;;;;;;;;;17.35;49.13;102031.00;5091526;28;20328;-86
2023/05/13 01:52:35;;;;;;;;;;;;;;;17.43;48.77;102030.50;5057758;28;19912;-87
2023/05/13 01:55:00;;;;;;;;;;;;;;;17.35;49.00;102034.53;5071648;28;19913;-88
2023/05/13 01:57:26;;;;;;;;;;;;;;;17.33;50.13;102044.13;5085746;28;19955;-85
2023/05/13 01:59:51;;;;;;;;;;;;;;;17.36;51.37;102038.09;5067914;28;19920;-86
2023/05/13 02:02:17;;;;;;;;;;;;;;;17.27;52.23;102039.47;5069966;28;20411;-86
2023/05/13 02:04:42;;;;;;;;;;;;;;;17.22;52.83;102038.34;5092499;28;19931;-86
2023/05/13 02:07:08;;;;;;;;;;;;;;;17.22;52.01;102040.97;5092054;28;19923;-86
2023/05/13 02:09:33;;;;;;;;;;;;;;;17.37;50.90;102032.88;5078976;28;20377;-86
2023/05/13 02:11:59;;;;;;;;;;;;;;;17.34;50.58;102039.78;5073648;28;20404;-85
2023/05/13 02:14:24;;;;;;;;;;;;;;;17.28;50.29;102029.81;5091747;28;20595;-86
2023/05/13 02:16:50;;;;;;;;;;;;;;;17.22;50.08;102040.97;5074444;28;19924;-86
2023/05/13 02:19:15;;;;;;;;;;;;;;;17.29;49.70;102034.25;5092331;28;19916;-86
2023/05/13 02:21:42;;;;;;;;;;;;;;;17.27;49.72;102041.19;5074489;28;19919;-86
2023/05/13 02:24:07;;;;;;;;;;;;;;;17.39;49.26;102036.50;5074571;28;19913;-86
2023/05/13 02:26:33;;;;;;;;;;;;;;;17.25;49.31;102041.13;5069069;28;19965;-86
2023/05/13 02:28:58;;;;;;;;;;;;;;;17.37;48.96;102035.50;5092013;28;20003;-86
2023/05/13 02:31:24;;;;;;;;;;;;;;;17.34;48.95;102039.78;5091962;28;20323;-86
2023/05/13 02:33:49;;;;;;;;;;;;;;;17.29;49.01;102040.44;5056783;28;20444;-86
2023/05/13 02:36:15;;;;;;;;;;;;;;;17.38;49.03;102047.00;5091902;28;19948;-86
2023/05/13 02:38:40;;;;;;;;;;;;;;;17.41;48.79;102048.03;5090991;28;19939;-86
2023/05/13 02:41:06;;;;;;;;;;;;;;;17.23;48.92;102049.78;5072898;28;20450;-86
2023/05/13 02:43:31;;;;;;;;;;;;;;;17.20;49.17;102053.19;5055304;28;19927;-86
2023/05/13 02:45:56;;;;;;;;;;;;;;;17.29;49.15;102043.09;5082878;28;19974;-86
2023/05/13 02:48:22;;;;;;;;;;;;;;;17.27;50.46;102057.03;5056651;28;19918;-86
2023/05/13 02:50:47;;;;;;;;;;;;;;;17.12;51.74;102053.66;5072795;28;20324;-86
2023/05/13 02:53:13;;;;;;;;;;;;;;;16.83;53.29;102072.53;5091388;28;19919;-86
2023/05/13 02:55:38;;;;;;;;;;;;;;;16.82;53.25;102073.34;5091719;28;19916;-86
2023/05/13 02:58:03;;;;;;;;;;;;;;;17.17;51.20;102070.66;5091106;28;20401;-86
2023/05/13 03:00:29;;;;;;;;;;;;;;;17.08;50.78;102066.72;5073348;28;19916;-86
2023/05/13 03:02:55;;;;;;;;;;;;;;;17.08;50.42;102063.16;5060370;28;20396;-86
2023/05/13 03:05:20;;;;;;;;;;;;;;;17.06;49.99;102056.94;5061829;28;19912;-86
2023/05/13 03:07:46;;;;;;;;;;;;;;;16.98;49.98;102063.56;5089611;28;19912;-86
2023/05/13 03:10:12;;;;;;;;;;;;;;;17.04;49.92;102066.50;5091218;28;19959;-86
2023/05/13 03:12:37;;;;;;;;;;;;;;;17.13;49.40;102079.25;5091096;28;19912;-86
2023/05/13 03:15:03;;;;;;;;;;;;;;;17.25;49.14;102079.81;5078819;28;19917;-86
2023/05/13 03:17:30;;;;;;;;;;;;;;;17.22;49.09;102083.22;5054827;28;20415;-86
2023/05/13 03:19:56;;;;;;;;;;;;;;;17.04;49.30;102087.63;5073819;28;19990;-87
2023/05/13 03:22:21;;;;;;;;;;;;;;;17.18;48.83;102083.91;5058526;28;20429;-86
2023/05/13 03:24:47;;;;;;;;;;;;;;;17.08;48.92;102084.28;5072914;28;20397;-86
2023/05/13 03:27:12;;;;;;;;;;;;;;;17.04;49.11;102103.47;5085862;28;20359;-87
2023/05/13 03:29:38;;;;;;;;;;;;;;;17.16;48.85;102103.13;5079789;28;20385;-87
2023/05/13 03:32:05;;;;;;;;;;;;;;;17.01;48.85;102105.94;5087649;28;19916;-88
2023/05/13 03:34:31;;;;;;;;;;;;;;;17.06;48.76;102107.97;5070592;28;20324;-87
2023/05/13 03:36:56;;;;;;;;;;;;;;;16.99;50.29;102112.88;5087422;28;19931;-87
2023/05/13 03:39:21;;;;;;;;;;;;;;;17.05;51.18;102099.97;5066263;28;19916;-87
2023/05/13 03:41:47;;;;;;;;;;;;;;;17.01;51.93;102109.47;5069184;28;20015;-87
2023/05/13 03:44:12;;;;;;;;;;;;;;;16.87;52.75;102107.91;5081862;28;20369;-87
2023/05/13 03:46:38;;;;;;;;;;;;;;;16.72;52.61;102108.03;5040710;28;20371;-87
2023/05/13 03:49:03;;;;;;;;;;;;;;;16.90;50.83;102102.78;5068581;28;20558;-85
2023/05/13 03:51:28;;;;;;;;;;;;;;;16.97;50.56;102099.59;5052849;28;19920;-87
2023/05/13 03:53:54;;;;;;;;;;;;;;;17.08;49.98;102101.03;5068540;28;20309;-87
2023/05/13 03:56:20;;;;;;;;;;;;;;;17.06;49.65;102099.16;5068181;28;19923;-87
2023/05/13 03:58:45;;;;;;;;;;;;;;;16.98;49.49;102098.78;5071745;28;20306;-86
2023/05/13 04:01:11;;;;;;;;;;;;;;;17.09;49.24;102104.59;5069739;28;20388;-85
2023/05/13 04:03:36;;;;;;;;;;;;;;;17.05;49.13;102103.50;5087713;28;19924;-86
2023/05/13 04:06:02;;;;;;;;;;;;;;;16.97;49.32;102109.25;5073730;28;20385;-85
2023/05/13 04:08:27;;;;;;;;;;;;;;;17.02;49.14;102111.31;5092303;28;20362;-87
2023/05/13 04:10:53;;;;;;;;;;;;;;;17.12;48.62;102106.47;5063586;28;19927;-87
2023/05/13 04:13:18;;;;;;;;;;;;;;;17.03;48.81;102112.19;5088357;28;20381;-86
2023/05/13 04:15:44;;;;;;;;;;;;;;;17.05;48.91;102111.44;5087461;28;20305;-86
2023/05/13 04:18:09;;;;;;;;;;;;;;;17.08;48.62;102122.16;5090246;28;20036;-84
2023/05/13 04:20:41;;;;;;;;;;;;;;;17.00;48.58;102115.59;5087408;28;19916;-84
2023/05/13 04:23:06;;;;;;;;;;;;;;;16.96;48.78;102123.28;5073653;28;20302;-84
2023/05/13 04:25:32;;;;;;;;;;;;;;;17.03;48.90;102126.28;5071187;28;19916;-86
2023/05/13 04:27:58;;;;;;;;;;;;;;;16.99;50.37;102129.59;5056310;28;19923;-85
2023/05/13 04:30:23;;;;;;;;;;;;;;;16.51;52.70;102123.66;5089576;28;19920;-86
2023/05/13 04:32:48;;;;;;;;;;;;;;;16.54;53.05;102123.78;5086525;28;19920;-86
2023/05/13 04:35:14;;;;;;;;;;;;;;;16.49;53.25;102128.84;5090947;28;19943;-86
2023/05/13 04:37:39;;;;;;;;;;;;;;;16.67;51.87;102135.88;5083108;28;20297;-85
2023/05/13 04:40:06;;;;;;;;;;;;;;;16.67;51.32;102138.50;5068808;28;20365;-85
2023/05/13 04:42:32;;;;;;;;;;;;;;;16.84;50.40;102140.31;5087016;28;19926;-86
2023/05/13 04:44:57;;;;;;;;;;;;;;;16.81;50.13;102137.53;5089214;28;20241;-86
2023/05/13 04:47:23;;;;;;;;;;;;;;;16.73;50.10;102140.56;5081925;28;19995;-86
2023/05/13 04:49:48;;;;;;;;;;;;;;;16.83;49.52;102143.78;5062715;28;20365;-87
2023/05/13 04:52:13;;;;;;;;;;;;;;;16.89;49.40;102140.56;5071320;28;19942;-86
2023/05/13 04:54:39;;;;;;;;;;;;;;;16.82;49.37;102139.31;5074689;28;20348;-87
2023/05/13 04:57:05;;;;;;;;;;;;;;;16.85;49.24;102142.13;5067956;28;20347;-86
2023/05/13 04:59:30;;;;;;;;;;;;;;;16.94;48.95;102146.97;5073563;28;19916;-87
2023/05/13 05:01:56;;;;;;;;;;;;;;;16.95;48.60;102147.84;5052229;28;19916;-86
2023/05/13 05:04:23;;;;;;;;;;;;;;;17.02;48.57;102144.72;5070003;28;19996;-86
2023/05/13 05:06:48;;;;;;;;;;;;;;;16.87;48.56;102145.75;5074073;28;19927;-86
2023/05/13 05:09:14;;;;;;;;;;;;;;;16.83;48.85;102149.06;5089575;28;19920;-86
2023/05/13 05:11:39;;;;;;;;;;;;;;;16.91;48.44;102144.16;5087639;28;19916;-84
2023/05/13 05:14:05;;;;;;;;;;;;;;;16.89;48.67;102146.72;5062965;28;20374;-83
2023/05/13 05:16:30;;;;;;;;;;;;;;;16.85;49.77;102144.75;5067597;28;19920;-83
2023/05/13 05:18:55;;;;;;;;;;;;;;;16.71;51.33;102147.50;5085575;28;20673;-83
2023/05/13 05:21:21;;;;;;;;;;;;;;;16.40;53.02;102138.91;5069181;28;20369;-84
2023/05/13 05:23:47;;;;;;;;;;;;;;;16.38;53.70;102139.63;5062505;28;19920;-83
2023/05/13 05:26:13;;;;;;;;;;;;;;;16.44;53.20;102132.06;5086409;28;19916;-84
2023/05/13 05:28:40;;;;;;;;;;;;;;;16.76;51.51;102138.06;5069534;28;20389;-85
2023/05/13 05:31:06;;;;;;;;;;;;;;;16.75;50.58;102139.81;5069482;28;19923;-83
2023/05/13 05:33:37;;;;;;;;;;;;;;;16.61;50.52;102141.72;5055236;28;20325;-85
2023/05/13 05:36:02;;;;;;;;;;;;;;;16.89;49.53;102137.91;5085697;28;19920;-84
2023/05/13 05:38:28;;;;;;;;;;;;;;;16.65;49.95;102137.53;5072372;28;19924;-85
2023/05/13 05:40:53;;;;;;;;;;;;;;;16.69;49.60;102128.94;5048412;28;19916;-85
2023/05/13 05:43:19;;;;;;;;;;;;;;;16.71;49.70;102132.56;5064628;28;19934;-85
2023/05/13 05:45:44;;;;;;;;;;;;;;;16.76;49.31;102135.44;5067346;28;20377;-84
2023/05/13 05:48:10;;;;;;;;;;;;;;;16.73;49.39;102130.03;5052277;28;19978;-84
2023/05/13 05:50:35;;;;;;;;;;;;;;;16.64;49.51;102127.81;5051350;28;19920;-87
2023/05/13 05:53:01;;;;;;;;;;;;;;;16.64;49.44;102127.81;5083857;28;19924;-84
2023/05/13 05:55:30;;;;;;;;;;;;;;;16.70;49.43;102133.41;5083012;28;20455;-84
2023/05/13 05:57:57;;;;;;;;;;;;;;;16.77;49.17;102130.25;5066941;28;19920;-86
2023/05/13 06:00:23;;;;;;;;;;;;;;;16.72;48.99;102136.09;5070907;28;19985;-88
2023/05/13 06:02:49;;;;;;;;;;;;;;;16.70;49.01;102138.69;5058155;28;20321;-91
2023/05/13 06:05:15;;;;;;;;;;;;;;;16.62;49.71;102138.28;5056133;28;19943;-88
2023/05/13 06:07:48;;;;;;;;;;;;;;;16.64;51.25;102143.66;5055914;28;19916;-93
2023/05/13 06:10:27;;;;;;;;;;;;;;;16.47;52.30;102151.59;5064482;28;19913;-92
2023/05/13 06:12:54;;;;;;;;;;;;;;;16.54;52.76;102151.91;5047423;28;20003;-92
2023/05/13 06:15:25;;;;;;;;;;;;;;;16.53;53.13;102137.81;5070525;28;19955;-91
2023/05/13 06:17:50;;;;;;;;;;;;;;;16.74;51.75;102142.38;5057827;28;19924;-92
2023/05/13 06:20:20;;;;;;;;;;;;;;;16.84;50.51;102145.56;5077003;28;19935;-91
2023/05/13 06:22:46;;;;;;;;;;;;;;;16.65;50.61;102146.34;5068741;28;19993;-89
2023/05/13 06:25:12;;;;;;;;;;;;;;;16.61;50.25;102147.00;5089260;28;19912;-84
2023/05/13 06:27:37;;;;;;;;;;;;;;;16.60;50.33;102146.94;5089086;28;19923;-86
2023/05/13 06:30:03;;;;;;;;;;;;;;;16.63;50.02;102141.81;5052032;28;19927;-89
2023/05/13 06:32:29;;;;;;;;;;;;;;;16.62;49.80;102143.56;5052847;28;19924;-86
2023/05/13 06:34:56;;;;;;;;;;;;;;;16.64;49.72;102141.91;5073152;28;19912;-86
2023/05/13 06:37:22;;;;;;;;;;;;;;;16.81;49.21;102142.78;5077762;28;19916;-87
2023/05/13 06:39:49;;;;;;;;;;;;;;;16.82;49.22;102143.69;5068558;28;19927;-88
2023/05/13 06:42:14;;;;;;;;;;;;;;;16.77;49.16;102142.53;5074377;28;19924;-85
2023/05/13 06:44:40;;;;;;;;;;;;;;;16.73;49.27;102141.47;5069712;28;19938;-87
2023/05/13 06:47:07;;;;;;;;;;;;;;;16.75;49.16;102139.81;5086242;28;19955;-86
2023/05/13 06:49:32;;;;;;;;;;;;;;;16.69;49.22;102144.78;5056290;28;20408;-88
2023/05/13 06:51:58;;;;;;;;;;;;;;;16.59;49.65;102150.41;5052388;28;19928;-87
2023/05/13 06:54:26;;;;;;;;;;;;;;;16.63;49.91;102155.00;5061188;28;19980;-88
2023/05/13 06:56:52;;;;;;;;;;;;;;;16.69;51.01;102160.59;5074292;28;20019;-89
2023/05/13 06:59:19;;;;;;;;;;;;;;;16.72;52.59;102159.84;5059961;28;19912;-89
2023/05/13 07:01:44;;;;;;;;;;;;;;;16.76;54.27;102156.53;5072617;28;19944;-90
2023/05/13 07:04:15;;;;;;;;;;;;;;;16.73;55.08;102145.84;5056144;28;19920;-89
2023/05/13 07:06:40;;;;;;;;;;;;;;;16.88;54.87;102149.28;5086041;28;19959;-90
2023/05/13 07:09:08;;;;;;;;;;;;;;;16.99;53.50;102155.09;5073900;28;19943;-89
2023/05/13 07:11:34;;;;;;;;;;;;;;;16.77;53.04;102154.00;5048602;28;20402;-90
2023/05/13 07:14:01;;;;;;;;;;;;;;;16.79;53.50;102157.59;5057301;28;19973;-89
2023/05/13 07:16:26;;;;;;;;;;;;;;;16.85;54.15;102155.31;5074027;28;20289;-89
2023/05/13 07:18:53;;;;;;;;;;;;;;;16.95;54.39;102172.50;5072904;28;19945;-89
2023/05/13 07:21:19;;;;;;;;;;;;;;;17.08;55.08;102164.41;5073486;28;19924;-90
2023/05/13 07:23:47;;;;;;;;;;;;;;;17.12;54.98;102172.44;5053907;28;19927;-89
2023/05/13 07:26:13;;;;;;;;;;;;;;;17.21;55.62;102175.56;5081616;28;19924;-89
2023/05/13 07:28:40;;;;;;;;;;;;;;;17.21;56.88;102188.78;5050317;28;19943;-89
2023/05/13 07:31:08;;;;;;;;;;;;;;;17.10;55.70;102180.28;5091283;28;19924;-89
2023/05/13 07:33:34;;;;;;;;;;;;;;;17.08;56.62;102176.66;5056857;28;19935;-89
2023/05/13 07:36:05;;;;;;;;;;;;;;;17.08;55.85;102174.03;5090016;28;20014;-89
2023/05/13 07:38:32;;;;;;;;;;;;;;;17.15;57.11;102181.44;5058169;28;19988;-88
2023/05/13 07:41:01;;;;;;;;;;;;;;;17.27;57.46;102168.84;5088424;28;19912;-89
2023/05/13 07:43:27;;;;;;;;;;;;;;;17.32;58.77;102179.63;5093593;28;19927;-89
2023/05/13 07:45:54;;;;;;;;;;;;;;;17.28;57.77;102170.66;5077380;28;19920;-90
2023/05/13 07:48:24;;;;;;;;;;;;;;;17.18;59.32;102172.75;5096429;28;19920;-85
2023/05/13 07:50:50;;;;;;;;;;;;;;;17.13;61.89;102167.25;5118065;28;19947;-89
2023/05/13 07:53:16;;;;;;;;;;;;;;;17.14;62.85;102160.22;5101735;28;19912;-89
2023/05/13 07:55:42;;;;;;;;;;;;;;;17.18;63.92;102160.47;5085116;28;20389;-90
2023/05/13 07:58:07;;;;;;;;;;;;;;;17.29;62.36;102156.63;5078260;28;19916;-89
2023/05/13 08:00:32;;;;;;;;;;;;;;;17.40;61.83;102156.22;5054213;28;19916;-88
2023/05/13 08:02:58;;;;;;;;;;;;;;;17.44;60.58;102148.53;5074278;28;20385;-89
2023/05/13 08:05:25;;;;;;;;;;;;;;;17.54;60.17;102141.94;5094312;28;19924;-89
2023/05/13 08:07:52;;;;;;;;;;;;;;;17.61;60.54;102151.06;5073809;28;19920;-89
2023/05/13 08:10:17;;;;;;;;;;;;;;;17.62;59.93;102135.28;5055784;28;19920;-89
2023/05/13 08:12:49;;;;;;;;;;;;;;;17.65;59.84;102127.53;5058977;28;19916;-88
2023/05/13 08:15:15;;;;;;;;;;;;;;;17.65;58.60;102139.81;5094707;28;19916;-88
2023/05/13 08:17:41;;;;;;;;;;;;;;;17.75;58.72;102151.72;5075289;28;20557;-89
2023/05/13 08:20:06;;;;;;;;;;;;;;;17.75;58.40;102168.47;5076545;28;20361;-90
2023/05/13 08:22:34;;;;;;;;;;;;;;;17.73;58.08;102159.56;5055537;28;19916;-90
2023/05/13 08:24:59;;;;;;;;;;;;;;;17.75;58.42;102160.53;5076449;28;19927;-90
2023/05/13 08:27:25;;;;;;;;;;;;;;;17.77;57.64;102165.91;5050585;28;19917;-89
2023/05/13 08:29:51;;;;;;;;;;;;;;;17.80;57.38;102169.63;5064397;28;19926;-90
2023/05/13 08:32:20;;;;;;;;;;;;;;;17.81;57.62;102167.88;5060173;28;20377;-91
2023/05/13 08:34:46;;;;;;;;;;;;;;;17.87;57.90;102162.91;5071794;28;19995;-90
2023/05/13 08:37:12;;;;;;;;;;;;;;;17.69;57.89;102168.19;5073723;28;19935;-88
2023/05/13 08:39:37;;;;;;;;;;;;;;;17.59;59.24;102176.50;5076523;28;19912;-89
2023/05/13 08:42:03;;;;;;;;;;;;;;;17.60;59.72;102170.41;5076078;28;19920;-90
2023/05/13 08:44:28;;;;;;;;;;;;;;;17.59;60.30;102169.50;5073465;28;20728;-90
2023/05/13 08:46:59;;;;;;;;;;;;;;;17.66;59.99;102162.78;5076107;28;19916;-89
2023/05/13 08:49:24;;;;;;;;;;;;;;;17.78;58.72;102166.00;5082598;28;19916;-89
2023/05/13 08:51:50;;;;;;;;;;;;;;;17.85;58.56;102161.94;5074701;28;20440;-89
2023/05/13 08:54:16;;;;;;;;;;;;;;;17.88;58.02;102162.06;5071653;28;20308;-89
2023/05/13 08:56:43;;;;;;;;;;;;;;;17.93;57.68;102176.41;5068029;28;19920;-90
2023/05/13 08:59:09;;;;;;;;;;;;;;;17.99;57.63;102174.06;5050646;28;20376;-87
2023/05/13 09:01:35;;;;;;;;;;;;;;;17.99;56.55;102155.56;5058950;28;20010;-90
2023/05/13 09:04:01;;;;;;;;;;;;;;;17.93;56.07;102163.19;5076128;28;19985;-89
2023/05/13 09:06:28;;;;;;;;;;;;;;;17.89;55.72;102162.13;5059089;28;19912;-90
2023/05/13 09:08:55;;;;;;;;;;;;;;;17.90;55.65;102161.28;5075087;28;19918;-88
2023/05/13 09:11:22;;;;;;;;;;;;;;;17.93;55.36;102160.56;5071499;28;19973;-89
2023/05/13 09:13:57;;;;;;;;;;;;;;;17.84;54.51;102153.09;5075187;28;19919;-89
2023/05/13 09:16:23;;;;;;;;;;;;;;;17.84;54.55;102152.19;5064863;28;19954;-90
2023/05/13 09:18:48;;;;;;;;;;;;;;;17.84;54.45;102142.53;5064298;28;20226;-90
2023/05/13 09:21:24;;;;;;;;;;;;;;;17.87;55.30;102145.31;5083202;28;19916;-90
2023/05/13 09:23:49;;;;;;;;;;;;;;;17.90;54.83;102148.06;5056068;28;19959;-90
2023/05/13 09:26:30;;;;;;;;;;;;;;;17.92;56.05;102145.50;5072284;28;20350;-90
2023/05/13 09:29:14;;;;;;;;;;;;;;;17.83;58.91;102155.66;5059607;28;20367;-90
2023/05/13 09:31:40;;;;;;;;;;;;;;;17.88;58.94;102149.75;5075272;28;19947;-90
2023/05/13 09:34:06;;;;;;;;;;;;;;;17.93;57.82;102151.69;5093805;28;20308;-89
2023/05/13 09:36:33;;;;;;;;;;;;;;;17.95;58.08;102142.09;5071343;28;20377;-89
2023/05/13 09:38:58;;;;;;;;;;;;;;;17.99;58.57;102134.41;5058984;28;20006;-89
2023/05/13 09:41:27;;;;;;;;;;;;;;;18.00;58.62;102136.19;5071854;28;20382;-86
2023/05/13 09:43:52;;;;;;;;;;;;;;;18.07;59.99;102143.56;5067344;28;19928;-88
2023/05/13 09:46:17;;;;;;;;;;;;;;;18.16;61.53;102148.38;5075071;28;19912;-87
2023/05/13 09:48:43;;;;;;;;;;;;;;;18.20;61.93;102147.69;5074012;28;20403;-87
2023/05/13 09:51:10;;;;;;;;;;;;;;;18.26;62.62;102155.88;5093666;28;20321;-95
2023/05/13 09:53:36;;;;;;;;;;;;;;;18.31;63.27;102154.34;5048859;28;19946;-90
2023/05/13 09:56:02;;;;;;;;;;;;;;;18.34;63.63;102150.03;5069804;28;19966;-90
2023/05/13 09:58:29;;;;;;;;;;;;;;;18.30;62.76;102143.69;5061455;28;19920;-90
2023/05/13 10:00:56;;;;;;;;;;;;;;;18.29;63.67;102137.50;5086893;28;19916;-91
2023/05/13 10:03:21;;;;;;;;;;;;;;;18.33;63.11;102133.28;5074700;28;19919;-87
2023/05/13 10:05:50;;;;;;;;;;;;;;;18.33;65.28;102132.34;5054042;28;19916;-90
2023/05/13 10:08:20;;;;;;;;;;;;;;;18.42;67.47;102135.41;5051978;28;19916;-89
2023/05/13 10:10:46;;;;;;;;;;;;;;;18.53;67.35;102134.13;5074287;28;20400;-89
2023/05/13 10:13:17;;;;;;;;;;;;;;;18.61;66.47;102131.81;5074120;28;20381;-90
2023/05/13 10:16:14;;;;;;;;;;;;;;;18.69;69.81;102139.25;5066485;28;20035;-90
2023/05/13 10:19:16;;;;;;;;;;;;;;;18.75;68.73;102130.66;5091562;28;20024;-91
2023/05/13 10:31:10;;;;;;;;;;;;;;;18.88;69.35;102138.31;5091159;28;19935;-88
2023/05/13 10:33:54;;;;;;;;;;;;;;;18.96;67.98;102140.38;5094652;28;19912;-90
2023/05/13 10:40:07;;;;;;;;;;;;;;;19.06;67.73;102134.63;5012925;28;19922;-92
2023/05/13 10:46:19;;;;;;;;;;;;;;;18.95;65.32;102131.53;5010679;28;20694;-93
2023/05/13 10:49:15;;;;;;;;;;;;;;;18.90;64.72;102131.34;5031641;28;19917;-93
2023/05/13 10:51:46;;;;;;;;;;;;;;;18.86;64.82;102144.41;5056589;28;20402;-92
2023/05/13 10:54:20;;;;;;;;;;;;;;;18.95;66.25;102141.22;5050512;28;20421;-91
2023/05/13 10:56:57;;;;;;;;;;;;;;;19.01;66.59;102134.44;5058453;28;19925;-91
2023/05/13 10:59:23;;;;;;;;;;;;;;;18.90;63.29;102130.41;5052780;28;20035;-92
2023/05/13 11:02:07;;;;;;;;;;;;;;;18.85;61.62;102127.59;5035232;28;20901;-90
2023/05/13 11:04:36;;;;;;;;;;;;;;;18.96;64.95;102121.84;5047544;28;19913;-92
2023/05/13 11:07:13;;;;;;;;;;;;;;;18.99;64.96;102124.63;5057707;28;19974;-92
2023/05/13 11:09:47;;;;;;;;;;;;;;;18.94;60.80;102123.50;5045272;28;19913;-92
2023/05/13 11:12:14;;;;;;;;;;;;;;;18.91;58.99;102121.66;5063778;28;20378;-91
2023/05/13 11:14:40;;;;;;;;;;;;;;;18.94;57.89;102124.41;5058771;28;19989;-91
2023/05/13 11:17:09;;;;;;;;;;;;;;;18.91;56.93;102119.00;5067110;28;20389;-92
2023/05/13 11:19:37;;;;;;;;;;;;;;;18.91;56.31;102125.19;5046940;28;19917;-90
2023/05/13 11:22:13;;;;;;;;;;;;;;;18.90;55.62;102123.41;5063378;28;19913;-91
2023/05/13 11:24:59;;;;;;;;;;;;;;;18.91;55.27;102119.00;5048177;28;20003;-91
2023/05/13 11:27:24;;;;;;;;;;;;;;;18.95;54.65;102110.34;5059594;28;19940;-91
2023/05/13 11:29:59;;;;;;;;;;;;;;;18.92;54.44;102110.22;5054825;28;19934;-93
2023/05/13 11:32:43;;;;;;;;;;;;;;;19.00;54.05;102113.19;5055731;28;20400;-91
2023/05/13 11:35:09;;;;;;;;;;;;;;;18.97;53.63;102118.38;5066975;28;19919;-87
2023/05/13 11:37:34;;;;;;;;;;;;;;;18.92;53.48;102116.44;5061224;28;20014;-88
2023/05/13 11:40:05;;;;;;;;;;;;;;;18.93;53.38;102119.97;5067880;28;19920;-90
2023/05/13 11:42:30;;;;;;;;;;;;;;;18.95;53.12;102128.00;5044885;28;19923;-87
2023/05/13 11:44:55;;;;;;;;;;;;;;;18.88;53.04;102125.09;5058110;28;20380;-89
2023/05/13 11:47:25;;;;;;;;;;;;;;;18.94;53.03;102121.75;5076110;28;20370;-89
2023/05/13 11:49:51;;;;;;;;;;;;;;;18.89;52.97;102131.28;5052923;28;19912;-88
2023/05/13 11:52:17;;;;;;;;;;;;;;;18.87;53.02;102132.94;5086568;28;19999;-88
2023/05/13 11:54:52;;;;;;;;;;;;;;;18.91;53.11;102141.09;5069327;28;19974;-88
2023/05/13 11:57:21;;;;;;;;;;;;;;;18.93;52.94;102141.16;5073138;28;19916;-89
2023/05/13 11:59:57;;;;;;;;;;;;;;;18.94;52.81;102150.00;5053970;28;20405;-88
2023/05/13 12:02:26;;;;;;;;;;;;;;;18.97;52.49;102160.72;5071478;28;19920;-88
2023/05/13 12:04:52;;;;;;;;;;;;;;;19.02;52.15;102160.06;5080625;28;19912;-88
2023/05/13 12:07:21;;;;;;;;;;;;;;;18.98;52.05;102167.81;5056498;28;19937;-88
2023/05/13 12:09:47;;;;;;;;;;;;;;;18.94;51.76;102171.16;5068360;28;19916;-87
2023/05/13 12:12:13;;;;;;;;;;;;;;;18.92;51.78;102168.44;5071855;28;19919;-87
2023/05/13 12:14:38;;;;;;;;;;;;;;;18.92;51.71;102166.72;5071333;28;19912;-88
2023/05/13 12:17:03;;;;;;;;;;;;;;;18.95;51.51;102160.66;5070486;28;19920;-88
2023/05/13 12:19:30;;;;;;;;;;;;;;;18.95;51.34;102165.06;5066675;28;20469;-89
2023/05/13 12:21:55;;;;;;;;;;;;;;;19.06;51.23;102153.16;5065840;28;20528;-87
2023/05/13 12:24:22;;;;;;;;;;;;;;;19.00;50.99;102144.94;5063153;28;20392;-88
2023/05/13 12:26:50;;;;;;;;;;;;;;;19.01;50.87;102144.13;5074051;28;19919;-87
2023/05/13 12:29:15;;;;;;;;;;;;;;;19.05;50.68;102141.66;5068963;28;20004;-87
2023/05/13 12:31:42;;;;;;;;;;;;;;;18.98;50.94;102144.88;5058900;28;19992;-89
2023/05/13 12:34:09;;;;;;;;;;;;;;;19.00;50.65;102144.94;5076713;28;19999;-90
2023/05/13 12:36:38;;;;;;;;;;;;;;;19.09;50.35;102150.63;5058764;28;19920;-88
2023/05/13 12:39:10;;;;;;;;;;;;;;;18.97;50.67;102153.69;5075132;28;20550;-89
2023/05/13 12:41:36;;;;;;;;;;;;;;;18.97;50.51;102153.69;5074946;28;19923;-88
2023/05/13 12:44:22;;;;;;;;;;;;;;;19.00;50.48;102158.19;5075338;28;19916;-89
2023/05/13 12:46:51;;;;;;;;;;;;;;;19.00;50.67;102151.16;5093350;28;19928;-89
2023/05/13 12:49:16;;;;;;;;;;;;;;;19.02;50.66;102146.81;5059711;28;19912;-87
2023/05/13 12:51:41;;;;;;;;;;;;;;;19.02;50.67;102149.47;5075836;28;19912;-88
2023/05/13 12:54:07;;;;;;;;;;;;;;;19.01;50.49;102137.09;5074509;28;19916;-87